createdAt,value
2023-05-25T00:00:34.036Z,92.52
2023-05-25T00:01:34.051Z,92.73
2023-05-25T00:02:34.173Z,92.42
2023-05-25T00:03:34.153Z,92.83
2023-05-25T00:04:34.107Z,92.73
2023-05-25T00:05:34.000Z,92.52
2023-05-25T00:06:33.984Z,92.93
2023-05-25T00:07:33.972Z,92.93
2023-05-25T00:08:33.987Z,93.14
2023-05-25T00:09:34.964Z,93.18
2023-05-25T00:10:33.935Z,93.44
2023-05-25T00:11:33.945Z,94.07
2023-05-25T00:12:33.920Z,94.37
2023-05-25T00:13:33.908Z,94.58
2023-05-25T00:14:33.909Z,94.62
2023-05-25T00:15:33.885Z,94.27
2023-05-25T00:16:33.920Z,94.31
2023-05-25T00:17:33.909Z,94.48
2023-05-25T00:18:33.859Z,94.58
2023-05-25T00:19:33.850Z,94.42
2023-05-25T00:20:34.910Z,94.37
2023-05-25T00:21:33.861Z,94.73
2023-05-25T00:22:33.817Z,94.73
2023-05-25T00:23:33.803Z,94.98
2023-05-25T00:24:34.819Z,95.08
2023-05-25T00:25:33.817Z,95.39
2023-05-25T00:26:33.798Z,95.28
2023-05-25T00:27:33.782Z,95.08
2023-05-25T00:28:33.776Z,95.59
2023-05-25T00:29:33.737Z,95.59
2023-05-25T00:30:33.770Z,95.59
2023-05-25T00:32:33.812Z,95.80
2023-05-25T00:33:33.712Z,95.80
2023-05-25T00:34:33.701Z,95.59
2023-05-25T00:35:33.737Z,95.59
2023-05-25T00:36:33.712Z,95.80
2023-05-25T00:37:33.691Z,95.95
2023-05-25T00:38:33.668Z,95.84
2023-05-25T00:39:33.657Z,95.84
2023-05-25T00:40:33.658Z,95.74
2023-05-25T00:41:33.623Z,95.84
2023-05-25T00:42:33.613Z,95.74
2023-05-25T00:43:33.610Z,96.15
2023-05-25T00:44:33.607Z,96.15
2023-05-25T00:45:33.626Z,95.84
2023-05-25T00:46:33.631Z,95.64
2023-05-25T00:47:33.622Z,96.09
2023-05-25T00:48:33.547Z,96.15
2023-05-25T00:49:33.540Z,95.89
2023-05-25T00:50:33.625Z,96.09
2023-05-25T00:51:33.533Z,95.53
2023-05-25T00:52:33.524Z,95.53
2023-05-25T00:53:33.502Z,96.15
2023-05-25T00:54:33.596Z,95.64
2023-05-25T00:55:33.510Z,95.84
2023-05-25T00:56:33.467Z,95.84
2023-05-25T00:57:33.465Z,96.15
2023-05-25T00:58:33.457Z,96.25
2023-05-25T00:59:33.440Z,96.46
2023-05-25T01:00:33.448Z,96.36
2023-05-25T01:01:33.587Z,96.77
2023-05-25T01:02:33.458Z,96.77
2023-05-25T01:03:33.530Z,96.67
2023-05-25T01:04:33.412Z,96.77
2023-05-25T01:05:33.384Z,96.56
2023-05-25T01:06:33.386Z,96.46
2023-05-25T01:07:33.372Z,96.46
2023-05-25T01:08:33.371Z,96.97
2023-05-25T01:09:33.363Z,96.15
2023-05-25T01:10:33.361Z,96.46
2023-05-25T01:11:33.325Z,96.46
2023-05-25T01:12:33.299Z,96.46
2023-05-25T01:13:33.297Z,96.56
2023-05-25T01:14:33.297Z,96.36
2023-05-25T01:15:33.273Z,95.95
2023-05-25T01:16:33.268Z,96.46
2023-05-25T01:17:33.254Z,96.61
2023-05-25T01:18:33.259Z,96.41
2023-05-25T01:19:33.235Z,96.61
2023-05-25T01:20:33.248Z,96.50
2023-05-25T01:21:33.205Z,96.66
2023-05-25T01:22:33.186Z,96.55
2023-05-25T01:23:33.346Z,96.86
2023-05-25T01:24:33.161Z,96.55
2023-05-25T01:25:33.149Z,96.66
2023-05-25T01:26:33.155Z,96.66
2023-05-25T01:27:33.155Z,96.96
2023-05-25T01:28:33.146Z,97.06
2023-05-25T01:29:33.144Z,96.86
2023-05-25T01:30:33.111Z,96.96
2023-05-25T01:31:33.095Z,96.86
2023-05-25T01:32:33.153Z,96.86
2023-05-25T01:33:33.084Z,96.61
2023-05-25T01:34:33.057Z,96.50
2023-05-25T01:35:33.052Z,96.50
2023-05-25T01:36:33.043Z,96.88
2023-05-25T01:37:33.059Z,96.92
2023-05-25T01:38:33.008Z,96.92
2023-05-25T01:39:33.138Z,96.71
2023-05-25T01:40:32.985Z,96.81
2023-05-25T01:41:32.983Z,97.02
2023-05-25T01:42:32.979Z,97.02
2023-05-25T01:43:32.964Z,96.92
2023-05-25T01:44:32.944Z,96.71
2023-05-25T01:45:32.987Z,96.71
2023-05-25T01:46:33.025Z,96.97
2023-05-25T01:47:32.998Z,96.46
2023-05-25T01:48:32.907Z,96.56
2023-05-25T01:49:32.887Z,96.36
2023-05-25T01:50:32.881Z,96.46
2023-05-25T01:51:32.901Z,96.67
2023-05-25T01:52:32.914Z,96.52
2023-05-25T01:53:32.851Z,96.31
2023-05-25T01:54:32.840Z,96.93
2023-05-25T01:55:32.838Z,96.52
2023-05-25T01:56:32.844Z,96.42
2023-05-25T01:57:32.806Z,96.46
2023-05-25T01:58:32.801Z,96.36
2023-05-25T01:59:32.787Z,96.05
2023-05-25T02:00:32.794Z,95.90
2023-05-25T02:01:32.853Z,96.15
2023-05-25T02:02:32.814Z,95.74
2023-05-25T02:03:32.743Z,95.84
2023-05-25T02:04:32.751Z,95.53
2023-05-25T02:05:32.757Z,95.80
2023-05-25T02:06:32.755Z,95.59
2023-05-25T02:07:32.709Z,95.59
2023-05-25T02:08:32.720Z,95.95
2023-05-25T02:09:32.695Z,95.12
2023-05-25T02:10:32.727Z,95.59
2023-05-25T02:11:32.674Z,95.39
2023-05-25T02:12:33.667Z,95.08
2023-05-25T02:13:32.663Z,95.12
2023-05-25T02:14:32.644Z,95.12
2023-05-25T02:15:32.670Z,95.23
2023-05-25T02:16:32.729Z,95.17
2023-05-25T02:17:32.623Z,95.02
2023-05-25T02:18:32.623Z,95.12
2023-05-25T02:19:32.623Z,94.96
2023-05-25T02:20:32.654Z,95.33
2023-05-25T02:21:32.571Z,95.02
2023-05-25T02:22:32.554Z,95.12
2023-05-25T02:23:32.541Z,94.71
2023-05-25T02:24:32.559Z,95.12
2023-05-25T02:25:32.540Z,95.39
2023-05-25T02:26:32.521Z,94.67
2023-05-25T02:27:32.517Z,95.28
2023-05-25T02:28:32.496Z,95.12
2023-05-25T02:29:32.566Z,95.12
2023-05-25T02:30:32.486Z,95.12
2023-05-25T02:31:32.484Z,95.08
2023-05-25T02:32:32.473Z,95.39
2023-05-25T02:33:32.459Z,95.08
2023-05-25T02:34:32.468Z,95.18
2023-05-25T02:35:32.454Z,95.59
2023-05-25T02:36:32.413Z,95.90
2023-05-25T02:37:32.421Z,95.80
2023-05-25T02:38:32.440Z,95.70
2023-05-25T02:39:32.400Z,95.90
2023-05-25T02:40:32.390Z,95.90
2023-05-25T02:41:32.366Z,95.59
2023-05-25T02:42:33.361Z,95.65
2023-05-25T02:43:32.367Z,95.55
2023-05-25T02:44:32.330Z,95.55
2023-05-25T02:45:32.326Z,95.81
2023-05-25T02:46:32.320Z,95.61
2023-05-25T02:47:32.314Z,95.61
2023-05-25T02:48:32.357Z,95.71
2023-05-25T02:49:32.296Z,95.40
2023-05-25T02:51:04.193Z,95.71
2023-05-25T02:51:32.270Z,95.40
2023-05-25T02:52:32.274Z,95.50
2023-05-25T02:53:32.263Z,95.61
2023-05-25T02:54:32.242Z,95.46
2023-05-25T02:55:32.225Z,95.40
2023-05-25T02:56:32.225Z,95.46
2023-05-25T02:57:32.221Z,95.25
2023-05-25T02:58:32.199Z,95.09
2023-05-25T02:59:32.183Z,95.25
2023-05-25T03:00:32.182Z,95.05
2023-05-25T03:01:32.182Z,94.74
2023-05-25T03:02:32.207Z,95.05
2023-05-25T03:03:32.185Z,94.84
2023-05-25T03:04:32.132Z,94.84
2023-05-25T03:05:32.124Z,94.99
2023-05-25T03:06:32.127Z,94.68
2023-05-25T03:07:32.120Z,94.89
2023-05-25T03:08:32.101Z,94.78
2023-05-25T03:09:32.077Z,94.68
2023-05-25T03:10:32.069Z,94.89
2023-05-25T03:11:32.087Z,94.89
2023-05-25T03:12:32.065Z,94.33
2023-05-25T03:13:32.041Z,94.68
2023-05-25T03:14:32.027Z,94.74
2023-05-25T03:15:32.025Z,94.54
2023-05-25T03:16:32.037Z,94.12
2023-05-25T03:17:32.036Z,93.98
2023-05-25T03:18:31.993Z,94.23
2023-05-25T03:19:31.975Z,93.98
2023-05-25T03:20:32.069Z,93.87
2023-05-25T03:21:31.992Z,94.08
2023-05-25T03:22:31.945Z,94.12
2023-05-25T03:23:31.951Z,94.02
2023-05-25T03:24:31.940Z,94.12
2023-05-25T03:25:31.919Z,94.12
2023-05-25T03:26:31.960Z,94.12
2023-05-25T03:27:31.905Z,93.77
2023-05-25T03:28:31.923Z,94.08
2023-05-25T03:29:32.473Z,94.29
2023-05-25T03:30:31.892Z,94.18
2023-05-25T03:31:32.923Z,94.18
2023-05-25T03:32:31.920Z,94.29
2023-05-25T03:33:31.910Z,94.18
2023-05-25T03:34:31.834Z,94.34
2023-05-25T03:35:31.837Z,94.14
2023-05-25T03:36:31.902Z,94.04
2023-05-25T03:37:31.903Z,93.73
2023-05-25T03:38:31.785Z,93.63
2023-05-25T03:39:31.804Z,93.32
2023-05-25T03:40:31.806Z,93.17
2023-05-25T03:41:31.759Z,93.01
2023-05-25T03:42:31.757Z,93.17
2023-05-25T03:43:32.752Z,93.12
2023-05-25T03:44:31.736Z,92.97
2023-05-25T03:45:31.760Z,92.66
2023-05-25T03:46:31.719Z,92.97
2023-05-25T03:47:31.765Z,92.86
2023-05-25T03:48:31.703Z,92.66
2023-05-25T03:49:31.714Z,92.76
2023-05-25T03:50:31.674Z,92.04
2023-05-25T03:51:31.669Z,92.55
2023-05-25T03:52:31.691Z,92.21
2023-05-25T03:53:31.639Z,92.61
2023-05-25T03:54:31.666Z,92.10
2023-05-25T03:55:31.635Z,92.61
2023-05-25T03:56:31.611Z,92.10
2023-05-25T03:57:31.627Z,92.00
2023-05-25T03:58:31.608Z,92.31
2023-05-25T03:59:31.623Z,92.21
2023-05-25T04:00:31.579Z,92.00
2023-05-25T04:01:31.582Z,92.04
2023-05-25T04:02:31.610Z,92.04
2023-05-25T04:03:31.990Z,91.74
2023-05-25T04:04:31.609Z,92.29
2023-05-25T04:05:31.525Z,92.50
2023-05-25T04:06:31.515Z,92.23
2023-05-25T04:07:31.516Z,92.80
2023-05-25T04:08:31.506Z,92.80
2023-05-25T04:09:31.494Z,92.70
2023-05-25T04:10:31.493Z,92.40
2023-05-25T04:11:31.467Z,92.91
2023-05-25T04:12:31.467Z,92.91
2023-05-25T04:13:31.467Z,93.05
2023-05-25T04:14:31.437Z,93.05
2023-05-25T04:15:31.418Z,93.46
2023-05-25T04:16:31.483Z,93.05
2023-05-25T04:17:31.460Z,93.57
2023-05-25T04:18:31.401Z,93.36
2023-05-25T04:19:31.393Z,94.08
2023-05-25T04:20:31.433Z,93.98
2023-05-25T04:21:31.395Z,93.93
2023-05-25T04:22:31.367Z,93.93
2023-05-25T04:23:31.364Z,94.45
2023-05-25T04:24:31.343Z,94.14
2023-05-25T04:25:31.325Z,93.93
2023-05-25T04:26:31.336Z,94.14
2023-05-25T04:27:31.322Z,94.34
2023-05-25T04:28:31.342Z,94.04
2023-05-25T04:29:31.283Z,94.14
2023-05-25T04:30:31.277Z,94.55
2023-05-25T04:31:31.328Z,94.76
2023-05-25T04:32:31.317Z,94.10
2023-05-25T04:33:31.252Z,94.61
2023-05-25T04:34:31.227Z,94.71
2023-05-25T04:35:31.327Z,94.61
2023-05-25T04:36:31.249Z,94.46
2023-05-25T04:37:31.212Z,94.56
2023-05-25T04:38:31.200Z,94.46
2023-05-25T04:39:31.188Z,94.56
2023-05-25T04:40:31.232Z,94.67
2023-05-25T04:41:31.246Z,94.56
2023-05-25T04:42:31.158Z,94.62
2023-05-25T04:43:31.144Z,94.67
2023-05-25T04:44:31.154Z,94.67
2023-05-25T04:45:31.159Z,94.15
2023-05-25T04:46:31.167Z,94.42
2023-05-25T04:47:31.132Z,94.05
2023-05-25T04:48:31.095Z,93.80
2023-05-25T04:49:31.125Z,93.80
2023-05-25T04:50:31.113Z,93.90
2023-05-25T04:51:31.076Z,94.01
2023-05-25T04:52:31.063Z,94.21
2023-05-25T04:53:31.894Z,94.32
2023-05-25T04:54:31.085Z,94.32
2023-05-25T04:55:31.035Z,93.25
2023-05-25T04:56:31.028Z,93.25
2023-05-25T04:57:31.018Z,92.94
2023-05-25T04:58:31.013Z,92.94
2023-05-25T04:59:31.016Z,92.83
2023-05-25T05:00:30.997Z,92.43
2023-05-25T05:01:31.182Z,92.22
2023-05-25T05:02:30.996Z,92.02
2023-05-25T05:03:31.040Z,92.18
2023-05-25T05:04:30.975Z,91.97
2023-05-25T05:05:30.945Z,92.49
2023-05-25T05:06:30.926Z,92.08
2023-05-25T05:07:30.919Z,92.34
2023-05-25T05:08:51.947Z,92.59
2023-05-25T05:09:30.903Z,91.83
2023-05-25T05:10:30.898Z,91.93
2023-05-25T05:11:30.881Z,91.83
2023-05-25T05:12:30.868Z,92.34
2023-05-25T05:13:30.872Z,92.03
2023-05-25T05:14:30.847Z,91.42
2023-05-25T05:15:30.854Z,90.97
2023-05-25T05:16:31.567Z,91.07
2023-05-25T05:17:31.863Z,90.86
2023-05-25T05:18:30.822Z,90.25
2023-05-25T05:19:31.460Z,90.45
2023-05-25T05:20:30.828Z,90.62
2023-05-25T05:21:30.789Z,90.92
2023-05-25T05:22:30.805Z,90.56
2023-05-25T05:23:30.781Z,89.70
2023-05-25T05:24:30.819Z,89.80
2023-05-25T05:25:30.744Z,89.70
2023-05-25T05:26:34.222Z,89.76
2023-05-25T05:27:31.741Z,89.56
2023-05-25T05:28:30.722Z,89.56
2023-05-25T05:29:30.713Z,89.25
2023-05-25T05:30:30.699Z,89.04
2023-05-25T05:31:30.718Z,89.09
2023-05-25T05:32:30.754Z,88.74
2023-05-25T05:33:30.740Z,88.64
2023-05-25T05:34:30.684Z,88.39
2023-05-25T05:35:30.647Z,88.64
2023-05-25T05:36:31.999Z,88.18
2023-05-25T05:37:31.624Z,88.29
2023-05-25T05:38:30.622Z,87.84
2023-05-25T05:39:30.609Z,87.84
2023-05-25T05:40:30.594Z,86.71
2023-05-25T05:41:30.645Z,86.00
2023-05-25T05:42:30.585Z,85.55
2023-05-25T05:43:30.575Z,85.08
2023-05-25T05:44:30.554Z,84.88
2023-05-25T05:45:30.570Z,85.04
2023-05-25T05:46:30.605Z,84.01
2023-05-25T05:47:30.561Z,83.85
2023-05-25T05:48:30.518Z,83.85
2023-05-25T05:49:30.505Z,84.06
2023-05-25T05:50:30.515Z,84.09
2023-05-25T05:51:30.513Z,83.79
2023-05-25T05:52:30.485Z,85.36
2023-05-25T05:53:30.489Z,84.85
2023-05-25T05:54:30.465Z,85.36
2023-05-25T05:55:30.474Z,84.75
2023-05-25T05:56:30.456Z,85.16
2023-05-25T05:57:30.429Z,85.16
2023-05-25T05:58:30.450Z,85.36
2023-05-25T05:59:30.434Z,85.36
2023-05-25T06:00:30.464Z,85.63
2023-05-25T06:01:30.388Z,85.02
2023-05-25T06:02:30.458Z,85.12
2023-05-25T06:03:30.386Z,84.36
2023-05-25T06:04:30.376Z,84.09
2023-05-25T06:05:31.106Z,83.65
2023-05-25T06:06:30.333Z,83.59
2023-05-25T06:07:30.332Z,83.38
2023-05-25T06:08:30.316Z,83.34
2023-05-25T06:09:30.357Z,83.89
2023-05-25T06:10:30.303Z,83.59
2023-05-25T06:11:30.368Z,83.79
2023-05-25T06:12:30.349Z,84.00
2023-05-25T06:13:30.302Z,84.30
2023-05-25T06:14:30.255Z,84.98
2023-05-25T06:15:30.268Z,84.61
2023-05-25T06:16:30.284Z,84.00
2023-05-25T06:17:30.275Z,84.41
2023-05-25T06:18:30.213Z,83.89
2023-05-25T06:19:30.224Z,84.20
2023-05-25T06:20:30.371Z,85.06
2023-05-25T06:21:30.175Z,85.06
2023-05-25T06:22:30.185Z,85.06
2023-05-25T06:23:30.223Z,85.26
2023-05-25T06:24:30.155Z,85.40
2023-05-25T06:25:30.143Z,86.43
2023-05-25T06:26:30.131Z,85.91
2023-05-25T06:27:30.140Z,86.12
2023-05-25T06:28:30.125Z,86.02
2023-05-25T06:29:30.104Z,86.18
2023-05-25T06:30:30.103Z,86.29
2023-05-25T06:31:30.099Z,86.38
2023-05-25T06:32:30.154Z,86.08
2023-05-25T06:33:30.076Z,85.47
2023-05-25T06:34:30.049Z,85.91
2023-05-25T06:35:30.070Z,86.08
2023-05-25T06:36:32.188Z,86.38
2023-05-25T06:37:30.057Z,86.18
2023-05-25T06:38:30.015Z,85.88
2023-05-25T06:39:30.002Z,85.32
2023-05-25T06:40:30.019Z,85.63
2023-05-25T06:41:30.000Z,85.57
2023-05-25T06:42:29.992Z,85.71
2023-05-25T06:43:29.997Z,85.61
2023-05-25T06:44:29.953Z,86.02
2023-05-25T06:45:29.945Z,86.36
2023-05-25T06:46:29.979Z,86.12
2023-05-25T06:47:31.142Z,86.36
2023-05-25T06:48:29.910Z,85.81
2023-05-25T06:49:29.906Z,86.02
2023-05-25T06:50:29.892Z,86.02
2023-05-25T06:51:29.895Z,85.61
2023-05-25T06:52:29.883Z,85.57
2023-05-25T06:53:29.856Z,86.08
2023-05-25T06:54:29.856Z,86.08
2023-05-25T06:55:29.863Z,85.73
2023-05-25T06:56:29.863Z,85.02
2023-05-25T06:57:29.836Z,84.91
2023-05-25T06:58:29.826Z,85.12
2023-05-25T06:59:29.960Z,84.91
2023-05-25T07:00:29.822Z,84.95
2023-05-25T07:01:29.792Z,85.26
2023-05-25T07:02:29.804Z,85.26
2023-05-25T07:03:29.773Z,85.61
2023-05-25T07:04:29.774Z,86.18
2023-05-25T07:05:29.831Z,86.38
2023-05-25T07:06:29.748Z,86.02
2023-05-25T07:07:29.708Z,86.12
2023-05-25T07:08:29.703Z,86.49
2023-05-25T07:09:29.698Z,87.10
2023-05-25T07:10:29.720Z,87.10
2023-05-25T07:11:29.685Z,86.79
2023-05-25T07:12:29.674Z,86.90
2023-05-25T07:13:29.682Z,86.90
2023-05-25T07:14:29.666Z,86.24
2023-05-25T07:15:29.658Z,86.14
2023-05-25T07:16:29.719Z,85.83
2023-05-25T07:17:29.650Z,85.02
2023-05-25T07:18:29.609Z,84.88
2023-05-25T07:19:29.615Z,85.08
2023-05-25T07:20:29.673Z,84.06
2023-05-25T07:21:29.583Z,83.65
2023-05-25T07:22:29.584Z,83.10
2023-05-25T07:23:29.569Z,82.89
2023-05-25T07:24:29.582Z,82.83
2023-05-25T07:25:29.546Z,83.04
2023-05-25T07:26:29.522Z,82.69
2023-05-25T07:27:29.509Z,81.87
2023-05-25T07:28:29.554Z,82.69
2023-05-25T07:29:29.507Z,82.59
2023-05-25T07:30:29.496Z,82.12
2023-05-25T07:31:29.526Z,82.67
2023-05-25T07:32:29.493Z,82.87
2023-05-25T07:33:29.458Z,83.59
2023-05-25T07:34:30.444Z,83.83
2023-05-25T07:35:29.432Z,83.32
2023-05-25T07:36:29.416Z,83.69
2023-05-25T07:37:29.426Z,83.79
2023-05-25T07:38:29.400Z,84.09
2023-05-25T07:39:29.395Z,83.59
2023-05-25T07:40:29.381Z,83.28
2023-05-25T07:41:29.426Z,83.38
2023-05-25T07:42:29.350Z,83.07
2023-05-25T07:43:29.349Z,83.54
2023-05-25T07:44:29.341Z,83.65
2023-05-25T07:45:29.336Z,83.14
2023-05-25T07:46:29.353Z,83.04
2023-05-25T07:47:29.370Z,82.42
2023-05-25T07:48:29.344Z,82.32
2023-05-25T07:49:29.285Z,82.73
2023-05-25T07:50:31.709Z,82.53
2023-05-25T07:51:29.316Z,83.32
2023-05-25T07:52:29.286Z,84.30
2023-05-25T07:53:29.246Z,84.09
2023-05-25T07:54:29.233Z,83.69
2023-05-25T07:55:29.245Z,83.32
2023-05-25T07:56:29.251Z,83.38
2023-05-25T07:57:29.197Z,84.14
2023-05-25T07:58:29.218Z,84.00
2023-05-25T07:59:29.207Z,83.59
2023-05-25T08:00:29.177Z,83.59
2023-05-25T08:01:29.248Z,83.59
2023-05-25T08:02:29.212Z,83.69
2023-05-25T08:03:44.255Z,83.22
2023-05-25T08:04:31.202Z,83.62
2023-05-25T08:05:29.141Z,83.97
2023-05-25T08:06:29.155Z,84.34
2023-05-25T08:07:29.111Z,85.12
2023-05-25T08:08:29.108Z,83.48
2023-05-25T08:09:29.102Z,83.18
2023-05-25T08:10:29.096Z,83.07
2023-05-25T08:11:29.060Z,82.46
2023-05-25T08:12:46.052Z,83.04
2023-05-25T08:13:31.045Z,82.93
2023-05-25T08:14:29.102Z,82.63
2023-05-25T08:15:29.062Z,82.22
2023-05-25T08:16:29.066Z,83.04
2023-05-25T08:17:29.052Z,82.22
2023-05-25T08:18:28.995Z,82.67
2023-05-25T08:19:29.054Z,82.73
2023-05-25T08:20:29.068Z,81.91
2023-05-25T08:21:28.963Z,81.98
2023-05-25T08:22:28.950Z,81.91
2023-05-25T08:23:28.938Z,81.60
2023-05-25T08:24:28.948Z,81.81
2023-05-25T08:25:28.980Z,81.98
2023-05-25T08:26:45.223Z,81.98
2023-05-25T08:27:32.272Z,80.82
2023-05-25T08:28:28.906Z,81.09
2023-05-25T08:29:28.900Z,81.04
2023-05-25T08:30:28.875Z,80.09
2023-05-25T08:31:28.914Z,79.27
2023-05-25T08:32:28.923Z,78.26
2023-05-25T08:33:28.871Z,77.51
2023-05-25T08:34:28.856Z,76.90
2023-05-25T08:35:28.851Z,77.37
2023-05-25T08:36:30.537Z,77.33
2023-05-25T08:37:28.817Z,76.82
2023-05-25T08:38:28.818Z,75.50
2023-05-25T08:39:28.788Z,76.25
2023-05-25T08:40:28.767Z,76.35
2023-05-25T08:41:28.758Z,76.21
2023-05-25T08:42:28.761Z,75.09
2023-05-25T08:43:28.764Z,74.76
2023-05-25T08:44:28.737Z,74.55
2023-05-25T08:45:35.687Z,74.21
2023-05-25T08:46:30.724Z,73.60
2023-05-25T08:47:28.734Z,73.09
2023-05-25T08:48:39.888Z,71.97
2023-05-25T08:49:30.688Z,73.02
2023-05-25T08:50:28.667Z,73.47
2023-05-25T08:51:28.659Z,73.91
2023-05-25T08:53:00.568Z,75.88
2023-05-25T08:53:28.643Z,75.47
2023-05-25T08:54:28.625Z,77.40
2023-05-25T08:55:28.627Z,78.19
2023-05-25T08:56:28.611Z,78.08
2023-05-25T08:57:28.625Z,77.13
2023-05-25T08:58:28.592Z,76.42
2023-05-25T08:59:28.592Z,74.65
2023-05-25T09:00:28.576Z,73.80
2023-05-25T09:01:28.594Z,73.16
2023-05-25T09:02:28.560Z,71.97
2023-05-25T09:03:28.795Z,71.53
2023-05-25T09:04:28.534Z,72.17
2023-05-25T09:05:28.519Z,72.89
2023-05-25T09:06:28.496Z,73.70
2023-05-25T09:07:28.514Z,72.75
2023-05-25T09:08:28.507Z,72.69
2023-05-25T09:09:28.482Z,72.89
2023-05-25T09:10:28.498Z,72.82
2023-05-25T09:11:38.846Z,73.71
2023-05-25T09:12:30.454Z,75.13
2023-05-25T09:13:28.440Z,75.64
2023-05-25T09:14:28.485Z,75.33
2023-05-25T09:15:28.454Z,74.82
2023-05-25T09:16:28.527Z,75.02
2023-05-25T09:17:28.475Z,73.91
2023-05-25T09:18:28.396Z,75.23
2023-05-25T09:19:28.426Z,74.41
2023-05-25T09:20:28.424Z,73.50
2023-05-25T09:21:28.367Z,75.27
2023-05-25T09:22:28.340Z,74.96
2023-05-25T09:23:28.345Z,75.33
2023-05-25T09:24:28.350Z,74.93
2023-05-25T09:25:28.346Z,75.60
2023-05-25T09:26:28.323Z,75.70
2023-05-25T09:27:28.310Z,75.23
2023-05-25T09:28:28.298Z,75.40
2023-05-25T09:29:28.311Z,75.06
2023-05-25T09:30:28.385Z,74.18
2023-05-25T09:31:28.341Z,72.62
2023-05-25T09:32:28.472Z,71.67
2023-05-25T09:33:28.245Z,71.26
2023-05-25T09:34:28.447Z,70.25
2023-05-25T09:35:28.225Z,69.20
2023-05-25T09:36:28.401Z,72.17
2023-05-25T09:37:28.285Z,71.36
2023-05-25T09:38:28.315Z,71.77
2023-05-25T09:39:28.270Z,72.45
2023-05-25T09:40:28.184Z,71.77
2023-05-25T09:41:28.231Z,71.84
2023-05-25T09:42:28.360Z,71.36
2023-05-25T09:43:41.378Z,70.42
2023-05-25T09:44:30.189Z,70.59
2023-05-25T09:45:28.137Z,69.00
2023-05-25T09:46:28.130Z,69.40
2023-05-25T09:47:28.293Z,70.39
2023-05-25T09:48:28.140Z,70.08
2023-05-25T09:49:28.151Z,67.82
2023-05-25T09:50:28.082Z,68.02
2023-05-25T09:51:28.121Z,67.82
2023-05-25T09:52:28.094Z,69.74
2023-05-25T09:53:28.203Z,70.69
2023-05-25T09:54:28.078Z,69.40
2023-05-25T09:55:33.877Z,70.18
2023-05-25T09:56:30.034Z,69.81
2023-05-25T09:57:28.071Z,70.52
2023-05-25T09:58:28.040Z,71.23
2023-05-25T09:59:28.004Z,70.28
2023-05-25T10:00:28.011Z,71.47
2023-05-25T10:01:28.017Z,71.47
2023-05-25T10:02:28.033Z,71.67
2023-05-25T10:03:27.989Z,72.04
2023-05-25T10:04:28.033Z,73.60
2023-05-25T10:05:27.941Z,74.72
2023-05-25T10:06:27.929Z,73.09
2023-05-25T10:07:28.235Z,71.84
2023-05-25T10:08:29.031Z,71.64
2023-05-25T10:09:28.934Z,73.02
2023-05-25T10:10:27.895Z,71.60
2023-05-25T10:11:27.909Z,71.67
2023-05-25T10:12:27.888Z,71.13
2023-05-25T10:13:27.887Z,69.00
2023-05-25T10:14:29.409Z,70.83
2023-05-25T10:15:28.839Z,72.45
2023-05-25T10:16:27.936Z,71.94
2023-05-25T10:17:27.873Z,72.69
2023-05-25T10:18:27.812Z,72.99
2023-05-25T10:19:27.808Z,74.28
2023-05-25T10:20:29.960Z,74.44
2023-05-25T10:21:28.808Z,72.62
2023-05-25T10:22:27.771Z,71.73
2023-05-25T10:23:27.839Z,72.96
2023-05-25T10:24:27.751Z,72.75
2023-05-25T10:25:27.765Z,70.65
2023-05-25T10:26:27.760Z,70.42
2023-05-25T10:27:28.197Z,69.07
2023-05-25T10:28:28.717Z,70.08
2023-05-25T10:29:27.709Z,68.87
2023-05-25T10:30:27.722Z,68.43
2023-05-25T10:31:28.026Z,68.60
2023-05-25T10:32:27.664Z,67.41
2023-05-25T10:33:27.728Z,68.43
2023-05-25T10:34:27.654Z,69.03
2023-05-25T10:35:27.878Z,68.26
2023-05-25T10:36:27.625Z,70.48
2023-05-25T10:37:27.624Z,69.43
2023-05-25T10:38:27.608Z,71.80
2023-05-25T10:39:27.608Z,72.31
2023-05-25T10:40:27.617Z,74.44
2023-05-25T10:41:27.583Z,72.82
2023-05-25T10:42:27.571Z,72.72
2023-05-25T10:43:27.602Z,72.11
2023-05-25T10:44:27.563Z,71.33
2023-05-25T10:45:27.540Z,71.43
2023-05-25T10:46:27.549Z,73.09
2023-05-25T10:47:27.525Z,73.39
2023-05-25T10:48:27.514Z,72.78
2023-05-25T10:49:27.508Z,72.08
2023-05-25T10:50:27.496Z,71.43
2023-05-25T10:51:27.478Z,72.01
2023-05-25T10:52:27.462Z,72.52
2023-05-25T10:53:27.468Z,72.38
2023-05-25T10:54:27.468Z,71.57
2023-05-25T10:55:27.428Z,70.25
2023-05-25T10:56:27.421Z,71.67
2023-05-25T10:57:27.417Z,70.76
2023-05-25T10:58:27.431Z,71.40
2023-05-25T10:59:27.393Z,70.76
2023-05-25T11:00:27.429Z,69.95
2023-05-25T11:01:27.429Z,70.55
2023-05-25T11:02:27.378Z,70.01
2023-05-25T11:03:27.366Z,70.72
2023-05-25T11:04:27.400Z,69.81
2023-05-25T11:05:27.395Z,71.67
2023-05-25T11:06:27.321Z,70.76
2023-05-25T11:07:27.324Z,68.60
2023-05-25T11:08:27.315Z,67.85
2023-05-25T11:09:27.296Z,67.14
2023-05-25T11:10:27.290Z,66.77
2023-05-25T11:11:27.272Z,67.99
2023-05-25T11:12:27.281Z,68.70
2023-05-25T11:13:27.266Z,67.99
2023-05-25T11:14:27.238Z,69.81
2023-05-25T11:15:27.237Z,68.83
2023-05-25T11:16:27.259Z,68.63
2023-05-25T11:17:27.259Z,67.75
2023-05-25T11:18:27.201Z,67.44
2023-05-25T11:19:27.188Z,67.95
2023-05-25T11:20:27.237Z,69.98
2023-05-25T11:21:27.340Z,71.37
2023-05-25T11:22:27.223Z,68.40
2023-05-25T11:23:27.161Z,69.47
2023-05-25T11:24:27.145Z,70.39
2023-05-25T11:25:27.160Z,68.15
2023-05-25T11:26:27.123Z,69.10
2023-05-25T11:27:27.145Z,69.17
2023-05-25T11:28:27.110Z,67.85
2023-05-25T11:29:27.321Z,69.17
2023-05-25T11:30:27.099Z,69.92
2023-05-25T11:31:27.276Z,67.72
2023-05-25T11:32:27.163Z,69.34
2023-05-25T11:33:27.182Z,69.07
2023-05-25T11:34:27.054Z,67.65
2023-05-25T11:35:27.064Z,69.51
2023-05-25T11:36:27.062Z,69.00
2023-05-25T11:37:27.020Z,70.08
2023-05-25T11:38:27.018Z,67.82
2023-05-25T11:39:27.015Z,66.70
2023-05-25T11:40:27.017Z,66.91
2023-05-25T11:41:26.981Z,66.91
2023-05-25T11:42:26.973Z,68.93
2023-05-25T11:43:26.994Z,68.19
2023-05-25T11:44:26.967Z,66.97
2023-05-25T11:45:26.947Z,66.94
2023-05-25T11:46:26.941Z,66.74
2023-05-25T11:47:26.943Z,65.05
2023-05-25T11:48:26.938Z,65.66
2023-05-25T11:49:26.938Z,64.47
2023-05-25T11:50:26.913Z,66.16
2023-05-25T11:51:26.880Z,66.47
2023-05-25T11:52:26.881Z,66.91
2023-05-25T11:53:26.928Z,66.77
2023-05-25T11:54:26.850Z,68.60
2023-05-25T11:55:26.857Z,67.28
2023-05-25T11:56:34.995Z,65.05
2023-05-25T11:57:28.819Z,65.28
2023-05-25T11:58:26.843Z,66.19
2023-05-25T11:59:27.697Z,66.30
2023-05-25T12:00:27.817Z,66.27
2023-05-25T12:01:26.796Z,67.14
2023-05-25T12:02:26.890Z,65.22
2023-05-25T12:03:26.859Z,65.45
2023-05-25T12:04:26.930Z,66.77
2023-05-25T12:05:26.769Z,67.05
2023-05-25T12:06:26.762Z,65.53
2023-05-25T12:07:26.728Z,65.15
2023-05-25T12:08:26.721Z,66.74
2023-05-25T12:09:26.727Z,66.74
2023-05-25T12:10:26.694Z,66.58
2023-05-25T12:11:26.679Z,64.04
2023-05-25T12:12:26.678Z,63.81
2023-05-25T12:13:26.675Z,62.07
2023-05-25T12:14:26.645Z,62.74
2023-05-25T12:15:26.646Z,63.32
2023-05-25T12:16:26.681Z,61.51
2023-05-25T12:17:26.624Z,64.26
2023-05-25T12:18:26.631Z,62.87
2023-05-25T12:19:26.602Z,62.47
2023-05-25T12:20:26.613Z,61.13
2023-05-25T12:21:26.586Z,60.82
2023-05-25T12:22:26.590Z,61.51
2023-05-25T12:23:26.594Z,61.71
2023-05-25T12:24:26.551Z,64.36
2023-05-25T12:25:27.368Z,60.49
2023-05-25T12:26:26.526Z,59.38
2023-05-25T12:27:26.542Z,60.19
2023-05-25T12:28:26.514Z,60.49
2023-05-25T12:29:26.499Z,60.62
2023-05-25T12:30:26.573Z,63.38
2023-05-25T12:31:26.599Z,61.46
2023-05-25T12:32:26.536Z,61.08
2023-05-25T12:33:26.566Z,61.56
2023-05-25T12:34:26.642Z,61.69
2023-05-25T12:35:26.473Z,61.99
2023-05-25T12:36:26.553Z,63.04
2023-05-25T12:37:26.524Z,65.23
2023-05-25T12:38:26.410Z,61.90
2023-05-25T12:39:26.443Z,61.29
2023-05-25T12:40:26.386Z,61.32
2023-05-25T12:41:27.391Z,61.85
2023-05-25T12:42:26.380Z,61.92
2023-05-25T12:43:26.351Z,64.83
2023-05-25T12:44:26.388Z,64.25
2023-05-25T12:45:26.336Z,63.44
2023-05-25T12:46:26.441Z,64.45
2023-05-25T12:47:26.360Z,65.70
2023-05-25T12:48:26.325Z,59.87
2023-05-25T12:49:26.367Z,61.69
2023-05-25T12:50:26.349Z,62.98
2023-05-25T12:51:26.314Z,63.02
2023-05-25T12:52:26.269Z,61.40
2023-05-25T12:53:26.488Z,58.82